Time;durP1;ratioP1;P1;durP2;ratioP2;P2;SDS_P1;SDS_P2;PMS_P1;PMS_P2;Temp;Humidity;BMP_temperature;BMP_pressure;BME280_temperature;BME280_humidity;BME280_pressure;Samples;Min_cycle;Max_cycle;Signal;HPM_P1;HPM_P2
2023/03/10 00:00:26;;;;;;;25.75;15.57;;;9.00;77.20;;;;;;5038686;28;20036;-15
2023/03/10 00:02:52;;;;;;;37.47;19.35;;;8.90;77.40;;;;;;5074882;28;20139;-16
2023/03/10 00:05:19;;;;;;;30.48;18.50;;;8.90;77.40;;;;;;5075794;28;20033;-15
2023/03/10 00:07:45;;;;;;;27.00;16.30;;;8.90;77.40;;;;;;5075593;28;20031;-15
2023/03/10 00:10:13;;;;;;;37.80;21.48;;;8.80;77.40;;;;;;5075496;28;20383;-18
2023/03/10 00:12:39;;;;;;;38.17;20.85;;;8.70;77.50;;;;;;5075072;28;20028;-16
2023/03/10 00:15:06;;;;;;;37.70;22.50;;;8.70;77.50;;;;;;5075533;28;20111;-17
2023/03/10 00:17:32;;;;;;;39.72;22.52;;;8.60;77.60;;;;;;5166440;22;20533;-15
2023/03/10 00:19:58;;;;;;;36.63;19.95;;;8.60;77.70;;;;;;5075986;28;20040;-16
2023/03/10 00:22:24;;;;;;;39.40;22.13;;;8.50;77.90;;;;;;5163759;22;20064;-16
2023/03/10 00:24:50;;;;;;;38.42;21.25;;;8.40;78.00;;;;;;5074940;28;20382;-15
2023/03/10 00:27:16;;;;;;;39.15;21.77;;;8.40;78.20;;;;;;5075356;28;20072;-18
2023/03/10 00:29:42;;;;;;;36.97;21.17;;;8.30;78.30;;;;;;5075050;28;20021;-16
2023/03/10 00:32:07;;;;;;;30.17;18.90;;;8.30;78.40;;;;;;5075329;28;20158;-16
2023/03/10 00:34:33;;;;;;;28.92;17.55;;;8.20;78.50;;;;;;5075010;28;20025;-16
2023/03/10 00:36:59;;;;;;;28.67;18.00;;;8.20;78.50;;;;;;5074597;28;20488;-17
2023/03/10 00:39:25;;;;;;;39.03;23.30;;;8.20;78.60;;;;;;5074728;28;20021;-16
2023/03/10 00:41:51;;;;;;;43.97;23.58;;;8.10;78.60;;;;;;5075126;28;20027;-17
2023/03/10 00:44:17;;;;;;;37.90;20.95;;;8.20;78.70;;;;;;5074671;28;20490;-17
2023/03/10 00:46:43;;;;;;;37.35;21.65;;;8.10;78.80;;;;;;5074325;28;20021;-17
2023/03/10 00:49:14;;;;;;;39.42;21.48;;;8.20;78.80;;;;;;5074505;28;20025;-17
2023/03/10 00:51:40;;;;;;;30.83;18.13;;;8.20;78.90;;;;;;5074622;28;20387;-17
2023/03/10 00:54:06;;;;;;;36.00;21.20;;;8.20;78.80;;;;;;5074495;28;20020;-16
2023/03/10 00:56:31;;;;;;;39.13;22.65;;;8.20;78.80;;;;;;5074701;28;20021;-16
2023/03/10 00:58:59;;;;;;;41.58;22.58;;;8.20;78.70;;;;;;5074504;28;20024;-17
2023/03/10 01:01:27;;;;;;;41.78;22.27;;;8.20;78.80;;;;;;5074737;28;20020;-15
2023/03/10 01:03:55;;;;;;;41.10;23.27;;;8.20;78.70;;;;;;5073092;28;20031;-15
2023/03/10 01:06:21;;;;;;;43.92;23.48;;;8.10;78.70;;;;;;5074434;28;20116;-17
2023/03/10 01:08:47;;;;;;;36.60;22.00;;;8.20;78.70;;;;;;5074345;28;20453;-15
2023/03/10 01:11:15;;;;;;;43.53;24.30;;;8.10;78.80;;;;;;5072845;28;20067;-16
2023/03/10 01:13:41;;;;;;;42.33;23.45;;;8.10;79.00;;;;;;5073322;28;20028;-17
2023/03/10 01:16:07;;;;;;;41.20;22.65;;;8.10;79.20;;;;;;5074322;28;20036;-16
2023/03/10 01:18:33;;;;;;;49.20;26.13;;;8.10;78.90;;;;;;5074013;28;20106;-16
2023/03/10 01:20:59;;;;;;;41.10;23.95;;;8.20;79.00;;;;;;5073501;28;20056;-16
2023/03/10 01:23:26;;;;;;;44.22;24.15;;;8.10;79.00;;;;;;5072981;28;20036;-16
2023/03/10 01:25:52;;;;;;;46.53;25.75;;;8.20;79.00;;;;;;5073733;28;20028;-15
2023/03/10 01:28:19;;;;;;;41.80;23.58;;;8.30;78.90;;;;;;5073951;28;20364;-16
2023/03/10 01:30:45;;;;;;;44.67;23.80;;;8.30;79.10;;;;;;5073603;28;20048;-16
2023/03/10 01:33:11;;;;;;;41.17;23.98;;;8.40;79.30;;;;;;5074062;28;20133;-16
2023/03/10 01:35:38;;;;;;;40.50;23.92;;;8.40;79.20;;;;;;5073612;28;20438;-16
2023/03/10 01:38:05;;;;;;;44.53;23.83;;;8.40;79.00;;;;;;5073863;28;20048;-16
2023/03/10 01:40:31;;;;;;;42.00;24.42;;;8.40;78.80;;;;;;5073634;28;20127;-17
2023/03/10 01:43:19;;;;;;;46.63;25.40;;;8.40;78.90;;;;;;5073436;28;20099;-17
2023/03/10 01:45:45;;;;;;;38.63;20.73;;;8.40;79.10;;;;;;5073702;28;20494;-16
2023/03/10 01:48:13;;;;;;;41.25;24.10;;;8.50;79.30;;;;;;5072619;28;20132;-16
2023/03/10 01:50:40;;;;;;;39.05;20.52;;;8.50;79.20;;;;;;5073310;28;20048;-17
2023/03/10 01:53:06;;;;;;;41.42;21.85;;;8.40;79.00;;;;;;5073348;28;20039;-16
2023/03/10 01:55:36;;;;;;;32.70;17.98;;;8.40;78.90;;;;;;5073279;28;20024;-15
2023/03/10 01:58:04;;;;;;;32.28;18.88;;;8.30;78.90;;;;;;5073524;28;20028;-15
2023/03/10 02:00:30;;;;;;;30.42;17.10;;;8.20;78.90;;;;;;5073150;28;20510;-15
2023/03/10 02:03:02;;;;;;;30.25;18.23;;;8.10;79.10;;;;;;5073246;28;20028;-15
2023/03/10 02:05:30;;;;;;;28.45;16.85;;;8.10;79.30;;;;;;5073001;28;20387;-15
2023/03/10 02:07:57;;;;;;;32.53;17.27;;;8.10;79.40;;;;;;5073013;28;20020;-16
2023/03/10 02:10:23;;;;;;;41.03;21.70;;;8.10;79.40;;;;;;5073368;28;20028;-16
2023/03/10 02:12:48;;;;;;;43.08;22.67;;;8.10;79.30;;;;;;5071436;28;20519;-16
2023/03/10 02:15:14;;;;;;;43.42;22.70;;;8.10;79.50;;;;;;5073343;28;20116;-16
2023/03/10 02:17:40;;;;;;;41.05;23.90;;;8.20;80.00;;;;;;5072935;28;20136;-16
2023/03/10 02:20:10;;;;;;;42.53;22.85;;;8.40;80.30;;;;;;5073229;28;20035;-15
2023/03/10 02:22:38;;;;;;;39.78;23.17;;;8.60;79.80;;;;;;5072700;28;20075;-16
2023/03/10 02:25:24;;;;;;;39.63;21.42;;;8.60;79.60;;;;;;5073063;28;20051;-16
2023/03/10 02:27:51;;;;;;;32.60;20.13;;;8.70;79.50;;;;;;5073101;28;20055;-16
2023/03/10 02:30:23;;;;;;;35.28;21.13;;;8.80;79.50;;;;;;5072800;28;20340;-15
2023/03/10 02:32:56;;;;;;;38.60;22.05;;;8.80;79.70;;;;;;5073444;28;20031;-16
2023/03/10 02:35:22;;;;;;;35.63;20.10;;;8.90;79.40;;;;;;5073000;28;20025;-16
2023/03/10 02:37:49;;;;;;;37.10;22.27;;;8.90;79.40;;;;;;5072436;28;20032;-16
2023/03/10 02:40:36;;;;;;;34.10;19.42;;;8.90;79.10;;;;;;5072729;28;20065;-16
2023/03/10 02:43:18;;;;;;;33.85;19.15;;;8.90;79.10;;;;;;5072327;28;20024;-15
2023/03/10 02:45:45;;;;;;;32.03;19.83;;;9.00;79.10;;;;;;5072688;28;20035;-16
2023/03/10 02:48:17;;;;;;;38.13;21.35;;;9.00;79.30;;;;;;5071206;28;20033;-15
2023/03/10 02:50:46;;;;;;;37.03;20.90;;;9.10;79.30;;;;;;5072546;28;20032;-15
2023/03/10 02:53:20;;;;;;;29.83;18.60;;;9.10;79.10;;;;;;5072574;28;20115;-16
2023/03/10 02:55:46;;;;;;;30.63;18.10;;;9.10;79.00;;;;;;5072678;28;20043;-16
2023/03/10 02:58:13;;;;;;;34.35;19.95;;;9.10;79.20;;;;;;5072575;28;20095;-16
2023/03/10 03:00:40;;;;;;;26.95;17.30;;;9.20;79.20;;;;;;5072230;28;20025;-16
2023/03/10 03:03:07;;;;;;;31.92;19.15;;;9.20;79.20;;;;;;5072207;28;20496;-16
2023/03/10 03:05:33;;;;;;;39.90;21.98;;;9.20;79.30;;;;;;5072332;28;20017;-14
2023/03/10 03:07:59;;;;;;;36.65;21.42;;;9.20;79.00;;;;;;5072109;28;20024;-16
2023/03/10 03:10:25;;;;;;;36.80;21.55;;;9.30;78.90;;;;;;5072408;28;20033;-15
2023/03/10 03:12:51;;;;;;;27.65;17.60;;;9.40;78.80;;;;;;5070681;28;20021;-15
2023/03/10 03:15:17;;;;;;;41.13;22.67;;;9.40;78.80;;;;;;5072476;28;20472;-13
2023/03/10 03:17:43;;;;;;;29.35;18.55;;;9.40;78.70;;;;;;5072091;28;20031;-18
2023/03/10 03:20:13;;;;;;;29.50;17.65;;;9.40;78.80;;;;;;5072371;28;20099;-17
2023/03/10 03:22:44;;;;;;;26.75;16.77;;;9.50;78.70;;;;;;5070306;28;20060;-18
2023/03/10 03:25:17;;;;;;;31.25;17.80;;;9.60;78.60;;;;;;5072638;28;20028;-17
2023/03/10 03:27:43;;;;;;;35.37;20.63;;;9.60;78.60;;;;;;5072792;28;20111;-16
2023/03/10 03:30:15;;;;;;;31.58;18.20;;;9.60;78.60;;;;;;5160605;22;20060;-15
2023/03/10 03:32:41;;;;;;;34.75;20.17;;;9.70;78.50;;;;;;5072062;28;20436;-16
2023/03/10 03:35:11;;;;;;;35.15;22.10;;;9.60;78.50;;;;;;5072166;28;20526;-15
2023/03/10 03:37:37;;;;;;;35.15;21.65;;;9.70;78.70;;;;;;5075470;28;20439;-12
2023/03/10 03:40:11;;;;;;;29.20;17.92;;;9.60;78.50;;;;;;5074617;28;20052;-13
2023/03/10 03:42:42;;;;;;;25.15;14.40;;;9.60;78.50;;;;;;5164617;22;20063;-16
2023/03/10 03:45:08;;;;;;;26.33;16.00;;;9.60;78.30;;;;;;5076313;28;20018;-23
2023/03/10 03:47:34;;;;;;;28.15;17.30;;;9.70;78.30;;;;;;5075822;28;20032;-15
2023/03/10 03:50:01;;;;;;;29.60;17.00;;;9.70;78.60;;;;;;5075917;28;20032;-15
2023/03/10 03:52:27;;;;;;;28.77;16.85;;;9.60;79.00;;;;;;5075694;28;20020;-16
2023/03/10 03:54:52;;;;;;;38.63;21.27;;;9.70;78.90;;;;;;5075715;28;20028;-16
2023/03/10 03:57:19;;;;;;;28.27;16.77;;;9.70;78.60;;;;;;5075885;28;20383;-16
2023/03/10 03:59:44;;;;;;;26.15;15.13;;;9.70;78.50;;;;;;5075585;28;20028;-15
2023/03/10 04:02:10;;;;;;;29.27;16.63;;;9.80;78.30;;;;;;5075533;28;20036;-14
2023/03/10 04:04:36;;;;;;;31.85;17.92;;;9.90;78.00;;;;;;5075485;28;20123;-18
2023/03/10 04:07:02;;;;;;;27.85;16.65;;;9.90;78.00;;;;;;5075220;28;20059;-14
2023/03/10 04:09:28;;;;;;;27.73;17.80;;;9.90;78.00;;;;;;5075415;28;20063;-16
2023/03/10 04:11:54;;;;;;;33.10;19.35;;;9.90;78.20;;;;;;5075254;28;20384;-16
2023/03/10 04:14:20;;;;;;;30.83;18.73;;;9.90;78.20;;;;;;5075303;28;20020;-13
2023/03/10 04:16:46;;;;;;;25.35;15.85;;;9.90;78.50;;;;;;5075493;28;20033;-17
2023/03/10 04:19:12;;;;;;;25.15;15.73;;;9.90;78.40;;;;;;5075230;28;20502;-14
2023/03/10 04:21:38;;;;;;;28.17;17.02;;;9.90;78.40;;;;;;5075455;28;20040;-16
2023/03/10 04:24:05;;;;;;;25.02;14.55;;;9.90;78.50;;;;;;5169522;22;20075;-16
2023/03/10 04:26:31;;;;;;;28.27;15.50;;;9.90;78.40;;;;;;5095178;28;20486;-16
2023/03/10 04:28:57;;;;;;;28.48;16.67;;;9.90;78.20;;;;;;5095246;28;20032;-17
2023/03/10 04:31:24;;;;;;;32.15;19.17;;;9.90;78.10;;;;;;5095146;28;20032;-16
2023/03/10 04:33:50;;;;;;;33.47;19.27;;;10.00;78.10;;;;;;5095446;28;20118;-15
2023/03/10 04:36:17;;;;;;;33.83;19.13;;;10.10;78.20;;;;;;5095834;28;20032;-16
2023/03/10 04:38:44;;;;;;;36.25;20.95;;;10.20;78.40;;;;;;5094669;28;20509;-16
2023/03/10 04:41:10;;;;;;;34.28;20.73;;;10.20;78.30;;;;;;5094981;28;20036;-16
2023/03/10 04:43:36;;;;;;;33.42;20.13;;;10.20;78.20;;;;;;5095303;28;20115;-15
2023/03/10 04:46:02;;;;;;;35.47;20.02;;;10.20;78.20;;;;;;5095097;28;20054;-15
2023/03/10 04:48:29;;;;;;;31.67;18.23;;;10.10;78.30;;;;;;5093815;28;20028;-15
2023/03/10 04:51:03;;;;;;;28.83;17.83;;;10.10;78.20;;;;;;5094616;28;20062;-17
2023/03/10 04:53:31;;;;;;;30.50;17.38;;;10.10;78.30;;;;;;5095019;28;20047;-17
2023/03/10 04:55:58;;;;;;;38.58;20.63;;;10.10;78.50;;;;;;5095001;28;20039;-15
2023/03/10 04:58:24;;;;;;;33.95;19.00;;;10.00;79.00;;;;;;5094721;28;20036;-16
2023/03/10 05:00:50;;;;;;;29.55;16.92;;;10.00;78.70;;;;;;5161041;22;20436;-20
2023/03/10 05:03:16;;;;;;;38.65;21.35;;;10.00;78.60;;;;;;5074667;28;20016;-21
2023/03/10 05:05:42;;;;;;;35.72;20.45;;;10.00;78.70;;;;;;5074496;28;20033;-19
2023/03/10 05:08:09;;;;;;;35.75;21.20;;;9.90;78.50;;;;;;5074536;28;20025;-20
2023/03/10 05:10:35;;;;;;;39.60;21.75;;;9.90;78.40;;;;;;5074364;28;20021;-19
2023/03/10 05:13:01;;;;;;;37.45;21.02;;;9.90;78.50;;;;;;5073933;28;20074;-20
2023/03/10 05:15:27;;;;;;;29.20;17.45;;;9.90;78.70;;;;;;5129629;22;20044;-17
2023/03/10 05:17:52;;;;;;;28.05;16.90;;;9.80;78.90;;;;;;5074386;28;20100;-16
2023/03/10 05:20:19;;;;;;;25.75;17.05;;;9.80;79.00;;;;;;5074268;28;20096;-17
2023/03/10 05:22:45;;;;;;;28.25;17.05;;;9.80;79.10;;;;;;5073816;28;20536;-16
2023/03/10 05:25:11;;;;;;;34.60;19.92;;;9.80;78.90;;;;;;5160914;22;20052;-15
2023/03/10 05:27:38;;;;;;;40.45;21.50;;;9.80;78.90;;;;;;5074280;28;20029;-15
2023/03/10 05:30:06;;;;;;;37.83;20.35;;;9.90;78.90;;;;;;5055927;28;20112;-16
2023/03/10 05:32:35;;;;;;;31.05;19.15;;;9.80;79.00;;;;;;5055781;28;20024;-17
2023/03/10 05:35:02;;;;;;;29.02;16.30;;;9.80;79.20;;;;;;5073606;28;20077;-16
2023/03/10 05:37:28;;;;;;;24.83;15.00;;;9.80;79.30;;;;;;5073607;28;20544;-18
2023/03/10 05:39:54;;;;;;;26.67;16.35;;;9.80;79.30;;;;;;5073834;28;20023;-16
2023/03/10 05:42:21;;;;;;;22.85;14.57;;;9.80;79.40;;;;;;5073569;28;20033;-16
2023/03/10 05:44:47;;;;;;;23.00;14.18;;;9.80;79.30;;;;;;5073324;28;20506;-15
2023/03/10 05:47:17;;;;;;;27.05;16.02;;;9.90;79.10;;;;;;5074217;28;20024;-17
2023/03/10 05:49:44;;;;;;;25.88;15.63;;;9.90;78.90;;;;;;5056749;28;20047;-15
2023/03/10 05:52:10;;;;;;;30.38;16.50;;;10.00;78.80;;;;;;5073397;28;20081;-16
2023/03/10 05:54:36;;;;;;;25.60;15.50;;;10.00;78.60;;;;;;5055593;28;20089;-18
2023/03/10 05:57:02;;;;;;;26.35;15.45;;;10.10;78.70;;;;;;5073079;28;20029;-15
2023/03/10 05:59:29;;;;;;;24.83;15.55;;;10.20;78.60;;;;;;5073080;28;20067;-17
2023/03/10 06:01:55;;;;;;;23.45;14.35;;;10.20;78.50;;;;;;5073526;28;20101;-16
2023/03/10 06:04:21;;;;;;;27.77;16.02;;;10.30;78.20;;;;;;5073352;28;20484;-16
2023/03/10 06:06:47;;;;;;;27.42;17.02;;;10.30;78.20;;;;;;5072746;28;20028;-16
2023/03/10 06:09:12;;;;;;;26.08;16.33;;;10.30;78.40;;;;;;5147967;22;20044;-19
2023/03/10 06:11:38;;;;;;;22.00;14.45;;;10.40;78.40;;;;;;5093459;28;20108;-21
2023/03/10 06:14:04;;;;;;;26.70;15.63;;;10.40;78.40;;;;;;5129111;22;20122;-14
2023/03/10 06:16:30;;;;;;;29.65;17.23;;;10.40;78.40;;;;;;5072256;28;20376;-18
2023/03/10 06:18:56;;;;;;;31.15;18.50;;;10.40;78.10;;;;;;5072749;28;20028;-17
2023/03/10 06:21:24;;;;;;;33.08;18.50;;;10.40;78.50;;;;;;5054869;28;20359;-17
2023/03/10 06:23:50;;;;;;;26.38;16.60;;;10.40;79.30;;;;;;5073125;28;20146;-17
2023/03/10 06:26:16;;;;;;;28.25;16.23;;;10.30;79.30;;;;;;5072951;28;20090;-13
2023/03/10 06:28:44;;;;;;;23.88;14.50;;;10.20;79.00;;;;;;5072442;28;20028;-13
2023/03/10 06:31:20;;;;;;;27.90;16.30;;;10.20;78.90;;;;;;5072747;28;20021;-14
2023/03/10 06:33:46;;;;;;;35.47;19.65;;;10.30;78.50;;;;;;5072759;28;20036;-18
2023/03/10 06:36:13;;;;;;;36.78;20.48;;;10.50;78.40;;;;;;5072556;28;20109;-13
2023/03/10 06:38:40;;;;;;;34.38;19.88;;;10.60;78.30;;;;;;5072309;28;20031;-17
2023/03/10 06:41:06;;;;;;;38.20;21.80;;;10.70;78.00;;;;;;5163139;22;20015;-14
2023/03/10 06:43:33;;;;;;;38.45;22.83;;;10.70;78.10;;;;;;5092691;28;20032;-16
2023/03/10 06:46:05;;;;;;;33.60;19.15;;;10.70;78.00;;;;;;5092859;28;20028;-14
2023/03/10 06:48:32;;;;;;;34.55;19.48;;;10.70;78.00;;;;;;5092649;28;20031;-16
2023/03/10 06:50:59;;;;;;;32.30;18.10;;;10.80;78.00;;;;;;5092352;28;20058;-15
2023/03/10 06:53:26;;;;;;;35.72;20.75;;;10.70;78.10;;;;;;5164375;22;21196;-20
2023/03/10 06:55:59;;;;;;;39.50;21.83;;;10.80;78.20;;;;;;5092857;28;20036;-20
2023/03/10 06:58:26;;;;;;;30.35;18.15;;;10.80;77.90;;;;;;5092610;28;20016;-20
2023/03/10 07:00:52;;;;;;;36.55;19.35;;;10.80;78.10;;;;;;5092236;28;20032;-21
2023/03/10 07:03:19;;;;;;;35.72;20.23;;;10.80;78.10;;;;;;5092435;28;20336;-20
2023/03/10 07:05:45;;;;;;;28.38;17.90;;;10.90;78.00;;;;;;5092706;28;20378;-19
2023/03/10 07:08:11;;;;;;;28.65;16.23;;;10.90;78.00;;;;;;5092474;28;20364;-19
2023/03/10 07:10:37;;;;;;;28.73;17.58;;;11.00;78.10;;;;;;5091848;28;20123;-19
2023/03/10 07:13:03;;;;;;;34.60;20.50;;;11.00;78.20;;;;;;5093150;28;20123;-19
2023/03/10 07:15:29;;;;;;;34.38;20.42;;;11.10;77.80;;;;;;5092691;28;20035;-20
2023/03/10 07:17:55;;;;;;;39.53;22.27;;;11.20;77.60;;;;;;5092353;28;20066;-20
2023/03/10 07:20:24;;;;;;;51.65;29.58;;;11.30;77.50;;;;;;5092574;28;20028;-21
2023/03/10 07:22:50;;;;;;;34.53;20.30;;;11.30;77.40;;;;;;5091972;28;20020;-20
2023/03/10 07:25:16;;;;;;;31.38;20.48;;;11.30;77.50;;;;;;5092340;28;20024;-20
2023/03/10 07:27:42;;;;;;;43.47;24.02;;;11.40;77.60;;;;;;5092445;28;20033;-21
2023/03/10 07:30:09;;;;;;;32.25;19.73;;;11.40;77.40;;;;;;5092327;28;20028;-20
2023/03/10 07:32:35;;;;;;;41.97;24.83;;;11.50;77.30;;;;;;5092106;28;20016;-19
2023/03/10 07:35:01;;;;;;;27.60;18.15;;;11.60;77.10;;;;;;5092154;28;20032;-20
2023/03/10 07:37:27;;;;;;;29.33;18.15;;;11.70;77.00;;;;;;5092363;28;20016;-20
2023/03/10 07:39:54;;;;;;;30.98;18.48;;;11.80;76.90;;;;;;5091972;28;20085;-20
2023/03/10 07:42:20;;;;;;;25.67;15.85;;;11.90;76.80;;;;;;5092049;28;20035;-20
2023/03/10 07:44:46;;;;;;;32.65;18.70;;;11.90;76.70;;;;;;5091789;28;20054;-19
2023/03/10 07:47:12;;;;;;;32.78;18.42;;;12.00;76.40;;;;;;5092237;28;20028;-18
2023/03/10 07:49:38;;;;;;;34.42;20.92;;;12.10;76.20;;;;;;5073996;28;20387;-20
2023/03/10 07:52:04;;;;;;;35.38;21.73;;;12.10;76.00;;;;;;5091979;28;20106;-20
2023/03/10 07:54:30;;;;;;;35.05;20.25;;;12.10;76.00;;;;;;5091563;28;20083;-18
2023/03/10 07:56:56;;;;;;;35.80;19.17;;;12.10;76.20;;;;;;5091757;28;20035;-19
2023/03/10 07:59:22;;;;;;;33.75;19.90;;;12.10;76.00;;;;;;5092417;28;20051;-18
2023/03/10 08:01:48;;;;;;;32.50;19.73;;;12.10;76.00;;;;;;5128795;22;20118;-17
2023/03/10 08:04:15;;;;;;;32.80;18.42;;;12.10;76.20;;;;;;5070647;28;20108;-17
2023/03/10 08:06:41;;;;;;;28.92;17.95;;;12.10;76.00;;;;;;5071458;28;20491;-16
2023/03/10 08:09:10;;;;;;;31.23;17.02;;;12.20;76.00;;;;;;5071707;28;20032;-14
2023/03/10 08:11:36;;;;;;;27.85;16.98;;;12.20;76.20;;;;;;5071651;28;20061;-17
2023/03/10 08:14:02;;;;;;;24.40;14.98;;;12.30;76.30;;;;;;5071800;28;20021;-18
2023/03/10 08:16:28;;;;;;;27.05;15.88;;;12.40;76.10;;;;;;5071508;28;20154;-16
2023/03/10 08:18:54;;;;;;;25.25;15.65;;;12.60;76.30;;;;;;5160757;22;20131;-16
2023/03/10 08:21:20;;;;;;;28.73;16.15;;;12.90;75.90;;;;;;5071905;28;20032;-17
2023/03/10 08:23:46;;;;;;;31.45;16.90;;;13.10;76.00;;;;;;5074972;28;20067;-16
2023/03/10 08:26:14;;;;;;;26.45;14.60;;;13.30;75.20;;;;;;5075122;28;20527;-17
2023/03/10 08:28:40;;;;;;;26.25;14.23;;;13.40;74.80;;;;;;5074841;28;20024;-17
2023/03/10 08:31:18;;;;;;;22.60;12.35;;;13.50;74.30;;;;;;5074970;28;20031;-16
2023/03/10 08:33:44;;;;;;;24.80;13.25;;;13.70;74.10;;;;;;5132321;22;20044;-15
2023/03/10 08:36:11;;;;;;;24.88;13.43;;;13.80;74.10;;;;;;5074937;28;20025;-16
2023/03/10 08:38:38;;;;;;;22.52;12.40;;;13.90;73.80;;;;;;5075195;28;20039;-17
2023/03/10 08:41:19;;;;;;;20.67;10.90;;;14.00;73.30;;;;;;5075292;28;20103;-18
2023/03/10 08:43:46;;;;;;;25.85;13.05;;;14.00;73.20;;;;;;5153728;22;20049;-20
2023/03/10 08:46:12;;;;;;;20.70;11.38;;;14.00;73.10;;;;;;5054829;28;20099;-20
2023/03/10 08:48:39;;;;;;;20.92;11.23;;;14.00;73.10;;;;;;5054747;28;20108;-21
2023/03/10 08:51:06;;;;;;;20.77;10.70;;;14.10;73.00;;;;;;5054994;28;20018;-19
2023/03/10 08:53:34;;;;;;;25.60;12.68;;;14.30;72.90;;;;;;5138309;22;20159;-16
2023/03/10 08:56:00;;;;;;;21.00;12.35;;;14.40;72.40;;;;;;5165470;22;20062;-19
2023/03/10 08:58:26;;;;;;;24.52;12.68;;;14.70;72.30;;;;;;5094751;28;20016;-19
2023/03/10 09:00:52;;;;;;;21.73;12.18;;;14.90;71.70;;;;;;5094516;28;20103;-19
2023/03/10 09:03:18;;;;;;;22.83;10.73;;;15.30;71.80;;;;;;5076320;28;20111;-20
2023/03/10 09:05:45;;;;;;;22.17;10.80;;;15.70;70.60;;;;;;5095235;28;20363;-19
2023/03/10 09:08:10;;;;;;;23.30;11.93;;;15.90;68.30;;;;;;5094518;28;20032;-19
2023/03/10 09:10:39;;;;;;;25.85;11.65;;;16.20;68.60;;;;;;5094548;28;20046;-19
2023/03/10 09:13:05;;;;;;;19.65;9.20;;;16.40;67.90;;;;;;5094408;28;20485;-19
2023/03/10 09:15:33;;;;;;;16.73;8.43;;;16.70;67.60;;;;;;5094312;28;20055;-18
2023/03/10 09:18:00;;;;;;;15.95;7.85;;;16.90;66.40;;;;;;5094266;28;20073;-18
2023/03/10 09:20:26;;;;;;;21.23;8.02;;;17.20;67.00;;;;;;5094203;28;20035;-20
2023/03/10 09:22:53;;;;;;;17.92;8.43;;;17.50;66.70;;;;;;5093864;28;20505;-19
2023/03/10 09:25:20;;;;;;;20.95;7.95;;;17.90;65.00;;;;;;5094130;28;20119;-18
2023/03/10 09:27:46;;;;;;;14.48;7.15;;;17.90;63.50;;;;;;5094404;28;20099;-20
2023/03/10 09:30:12;;;;;;;15.10;7.57;;;18.00;64.80;;;;;;5094105;28;20556;-20
2023/03/10 09:32:38;;;;;;;19.63;8.02;;;18.20;64.20;;;;;;5075974;28;20035;-21
2023/03/10 09:35:05;;;;;;;13.63;7.28;;;18.40;62.40;;;;;;5093445;28;20024;-18
2023/03/10 09:37:32;;;;;;;17.17;8.55;;;18.60;63.20;;;;;;5093833;28;20047;-19
2023/03/10 09:39:58;;;;;;;18.60;8.77;;;18.80;61.80;;;;;;5093795;28;20107;-18
2023/03/10 09:42:27;;;;;;;17.23;7.85;;;18.80;62.10;;;;;;5093763;28;20099;-19
2023/03/10 09:45:11;;;;;;;14.40;7.00;;;18.80;61.30;;;;;;5093804;28;20020;-19
2023/03/10 09:47:47;;;;;;;19.63;7.28;;;18.90;62.80;;;;;;5094042;28;20074;-18
2023/03/10 09:50:45;;;;;;;15.02;6.25;;;19.00;61.40;;;;;;5093991;28;20024;-18
2023/03/10 09:53:47;;;;;;;15.98;6.45;;;19.20;62.20;;;;;;5093583;28;20363;-18
2023/03/10 09:56:19;;;;;;;15.15;6.40;;;19.40;60.30;;;;;;5093330;28;20044;-19
2023/03/10 09:58:47;;;;;;;13.38;6.53;;;19.60;61.20;;;;;;5094004;28;20122;-15
2023/03/10 10:01:26;;;;;;;13.35;7.05;;;19.80;58.80;;;;;;5093742;28;20032;-19
2023/03/10 10:04:34;;;;;;;14.68;7.22;;;19.90;58.60;;;;;;5093300;28;20032;-17
2023/03/10 10:07:01;;;;;;;14.25;6.65;;;20.00;59.20;;;;;;4991451;28;20034;-19
2023/03/10 10:09:41;;;;;;;12.88;6.10;;;20.10;59.30;;;;;;4991717;28;20026;-19
2023/03/10 10:12:21;;;;;;;12.30;6.65;;;20.40;57.40;;;;;;5055982;22;20038;-16
2023/03/10 10:14:49;;;;;;;21.48;6.78;;;20.60;56.30;;;;;;5031976;28;20467;-18
2023/03/10 10:17:36;;;;;;;12.27;5.82;;;20.90;55.20;;;;;;5033431;28;20030;-15
2023/03/10 10:20:06;;;;;;;19.73;7.72;;;21.10;55.20;;;;;;5033069;28;20036;-12
2023/03/10 10:22:36;;;;;;;12.60;6.13;;;21.20;54.60;;;;;;5117043;22;20420;-19
2023/03/10 10:25:08;;;;;;;15.48;6.97;;;21.30;55.00;;;;;;5093197;28;20107;-18
2023/03/10 10:27:38;;;;;;;15.07;7.63;;;21.40;55.20;;;;;;5093208;28;20509;-19
2023/03/10 10:30:28;;;;;;;16.88;7.20;;;21.60;54.70;;;;;;5092881;28;20030;-19
2023/03/10 10:33:07;;;;;;;13.15;6.97;;;21.60;54.60;;;;;;5092733;28;20041;-18
2023/03/10 10:35:39;;;;;;;10.55;5.38;;;21.50;54.70;;;;;;5092790;28;20028;-18
2023/03/10 10:38:09;;;;;;;11.77;5.90;;;21.40;55.90;;;;;;5092735;28;20032;-17
2023/03/10 10:40:49;;;;;;;10.85;5.82;;;21.10;56.30;;;;;;5093068;28;20028;-18
2023/03/10 10:43:19;;;;;;;12.18;5.60;;;21.20;53.90;;;;;;5093236;28;20032;-17
2023/03/10 10:45:53;;;;;;;10.60;5.38;;;21.20;54.30;;;;;;5091941;28;20031;-18
2023/03/10 10:48:32;;;;;;;12.57;5.68;;;21.50;54.30;;;;;;5092734;28;20063;-17
2023/03/10 10:50:58;;;;;;;7.35;4.32;;;21.90;54.00;;;;;;5092415;28;20391;-19
2023/03/10 10:53:25;;;;;;;12.20;5.05;;;22.30;53.60;;;;;;5092789;28;20020;-18
2023/03/10 10:56:11;;;;;;;11.27;6.25;;;22.70;53.20;;;;;;5092469;28;20409;-17
2023/03/10 10:58:39;;;;;;;15.60;7.18;;;23.00;52.00;;;;;;5092519;28;20024;-16
2023/03/10 11:01:11;;;;;;;11.73;4.88;;;23.20;51.60;;;;;;5092584;28;20031;-16
2023/03/10 11:03:48;;;;;;;15.88;6.18;;;23.10;51.40;;;;;;5146796;22;20060;-15
2023/03/10 11:06:23;;;;;;;9.80;5.80;;;22.90;50.50;;;;;;5092502;28;20032;-15
2023/03/10 11:08:49;;;;;;;12.95;6.20;;;22.90;52.00;;;;;;5092393;28;20030;-15
2023/03/10 11:11:30;;;;;;;12.45;5.45;;;23.40;50.90;;;;;;5092471;28;20479;-15
2023/03/10 11:14:34;;;;;;;15.88;7.25;;;24.00;50.00;;;;;;5092948;28;20039;-14
2023/03/10 11:17:02;;;;;;;15.88;7.80;;;24.50;47.60;;;;;;5092209;28;20398;-13
2023/03/10 11:19:34;;;;;;;14.05;6.60;;;24.70;49.50;;;;;;5092484;28;20064;-15
2023/03/10 11:22:24;;;;;;;12.45;5.60;;;24.70;48.50;;;;;;5092428;28;20039;-17
2023/03/10 11:25:01;;;;;;;10.02;6.13;;;24.70;49.50;;;;;;5077824;28;20054;-15
2023/03/10 11:27:55;;;;;;;13.27;6.55;;;25.00;46.70;;;;;;5092643;28;20475;-15
2023/03/10 11:30:52;;;;;;;11.38;6.47;;;25.70;42.10;;;;;;5092572;28;20373;-15
2023/03/10 11:33:34;;;;;;;13.45;6.05;;;26.00;41.90;;;;;;5092274;28;20025;-13
2023/03/10 11:36:34;;;;;;;11.75;6.13;;;26.20;41.90;;;;;;5092666;28;20035;-15
2023/03/10 11:39:18;;;;;;;18.52;7.00;;;26.20;41.20;;;;;;5065762;28;20051;-13
2023/03/10 11:41:48;;;;;;;16.38;7.22;;;25.90;41.20;;;;;;5092400;28;20059;-15
2023/03/10 11:44:29;;;;;;;16.88;7.20;;;25.50;42.10;;;;;;5092123;28;20020;-14
2023/03/10 11:47:17;;;;;;;18.55;8.13;;;25.00;43.40;;;;;;5091910;28;20438;-15
2023/03/10 11:49:51;;;;;;;12.27;7.00;;;24.60;44.70;;;;;;5092346;28;20032;-15
2023/03/10 11:52:20;;;;;;;14.15;7.90;;;24.50;45.30;;;;;;5092384;28;20028;-15
2023/03/10 11:55:19;;;;;;;15.82;7.70;;;24.50;45.70;;;;;;5092076;28;20016;-15
2023/03/10 11:57:49;;;;;;;12.32;6.15;;;24.50;45.40;;;;;;5031641;28;20041;-15
2023/03/10 12:00:26;;;;;;;12.45;6.78;;;24.60;45.00;;;;;;5033808;28;20030;-16
2023/03/10 12:03:24;;;;;;;9.98;5.88;;;24.90;43.70;;;;;;5033040;28;20190;-15
2023/03/10 12:05:59;;;;;;;11.65;6.38;;;25.40;41.90;;;;;;5033712;28;20168;-15
2023/03/10 12:08:32;;;;;;;13.70;6.32;;;25.70;42.20;;;;;;5033460;28;20026;-14
2023/03/10 12:11:02;;;;;;;14.75;8.20;;;26.00;41.60;;;;;;5033319;28;20029;-18
2023/03/10 12:13:48;;;;;;;10.30;5.63;;;26.10;41.50;;;;;;5016880;28;20517;-15
2023/03/10 12:16:22;;;;;;;15.20;7.60;;;25.90;42.00;;;;;;5033909;28;20025;-14
2023/03/10 12:18:48;;;;;;;13.95;4.97;;;26.00;42.40;;;;;;5033228;28;20045;-15
2023/03/10 12:21:16;;;;;;;10.10;5.60;;;25.90;41.90;;;;;;5033570;28;20541;-15
2023/03/10 12:23:53;;;;;;;9.65;5.60;;;25.80;41.90;;;;;;5016560;28;20029;-15
2023/03/10 12:26:37;;;;;;;11.73;6.47;;;25.50;42.50;;;;;;5033261;28;20105;-15
2023/03/10 12:29:34;;;;;;;10.63;5.40;;;25.00;42.80;;;;;;5076626;28;20032;-15
2023/03/10 12:32:00;;;;;;;11.45;6.88;;;24.60;44.30;;;;;;5013204;28;20038;-15
2023/03/10 12:34:30;;;;;;;10.57;6.45;;;24.60;45.10;;;;;;5013156;28;20084;-15
2023/03/10 12:37:01;;;;;;;12.23;6.57;;;25.10;43.70;;;;;;5013586;28;20045;-15
2023/03/10 12:39:27;;;;;;;11.82;6.30;;;25.60;41.90;;;;;;5013129;28;20401;-15
2023/03/10 12:41:54;;;;;;;10.57;5.95;;;26.20;40.60;;;;;;5013121;28;20021;-15
2023/03/10 12:44:31;;;;;;;13.32;6.57;;;26.10;41.00;;;;;;5013255;28;20030;-14